»·PEaware :: N196EC L00-KSAN

N196EC :: L00-KSAN

FLIGHT INFORMATION

Flight Status: Arrived
Operator: Privately registered:
United States
More flights under this callsign
Pilot: Adrián R. (20842)
Aircraft: SOCATA TBM-900
(TBM9)
More flights by this aircraft type
Origin: L00 Rosamond
United States
Destination: KSAN San Diego Intl-Lindbergh
United States
More flights between these airports :: More routes between these airports
Route: PMD V201 BERRI V459 SLI V597 MZB
File this flight plan on PilotEdge
Remarks:
Altitude:
(Current/Filed)
15,000ft
Speed:
(Current/Filed)
276kts
Departed: 20-Nov-18 10:31 AM
Arrived: 20-Nov-18 11:22 AM
Distance/Time
Traveled:
138nm/0:51
Distance/Time
To Go:
Arrived

Flight Plot

Page will automatically refresh every two minutes.

Flight plan parsing failed; only flown route is shown


Map Options




Map Legend


Flown Route
Filed Route
Departure Airport
Arrival Airport
Navaid (VOR, NDB)
Fix

Horizontal Profiles

Position Reports

Time Latitude Longitude Heading Altitude Ground
Speed
20-Nov-18 10:14 34.869400 -118.206653 5 2418ft 0kts
20-Nov-18 10:15 34.869400 -118.206653 5 2418ft 0kts
20-Nov-18 10:16 34.869400 -118.206653 5 2418ft 0kts
20-Nov-18 10:17 34.869400 -118.206653 5 2418ft 0kts
20-Nov-18 10:18 34.869400 -118.206653 5 2418ft 0kts
20-Nov-18 10:19 34.869400 -118.206653 5 2418ft 0kts
20-Nov-18 10:20 34.869400 -118.206653 5 2418ft 0kts
20-Nov-18 10:21 34.869400 -118.206653 5 2418ft 0kts
20-Nov-18 10:22 34.869400 -118.206653 5 2418ft 0kts
20-Nov-18 10:23 34.869400 -118.206653 5 2418ft 0kts
20-Nov-18 10:24 34.869400 -118.206653 5 2418ft 0kts
20-Nov-18 10:25 34.869400 -118.206653 5 2418ft 0kts
20-Nov-18 10:26 34.869400 -118.206653 5 2418ft 0kts
20-Nov-18 10:27 34.869400 -118.206653 5 2418ft 0kts
20-Nov-18 10:28 34.869400 -118.206653 5 2418ft 0kts
20-Nov-18 10:29 34.869400 -118.206653 5 2418ft 0kts
20-Nov-18 10:30 34.869400 -118.206653 5 2418ft 0kts
20-Nov-18 10:31 34.869960 -118.206595 29 2418ft 6kts
20-Nov-18 10:32 34.870157 -118.202769 90 2418ft 16kts
20-Nov-18 10:33 34.870439 -118.200021 269 2418ft 0kts
20-Nov-18 10:34 34.870484 -118.208322 271 2423ft 119kts
20-Nov-18 10:35 34.869593 -118.255476 268 4356ft 149kts
20-Nov-18 10:36 34.844691 -118.277446 129 6392ft 151kts
20-Nov-18 10:37 34.820565 -118.237398 123 8797ft 147kts
20-Nov-18 10:38 34.796173 -118.195167 123 10660ft 160kts
20-Nov-18 10:39 34.771412 -118.149919 123 12849ft 162kts
20-Nov-18 10:40 34.722890 -118.117917 150 13577ft 210kts
20-Nov-18 10:41 34.673017 -118.088399 149 15014ft 213kts
20-Nov-18 10:42 34.611428 -118.074810 196 15026ft 263kts
20-Nov-18 10:43 34.542478 -118.111077 198 15003ft 274kts
20-Nov-18 10:44 34.472422 -118.148231 198 14996ft 276kts
20-Nov-18 10:45 34.402268 -118.185366 198 14983ft 277kts
20-Nov-18 10:46 34.330987 -118.223027 199 14959ft 282kts
20-Nov-18 10:47 34.258933 -118.261029 199 14937ft 283kts
20-Nov-18 10:48 34.186444 -118.284012 156 14945ft 266kts
20-Nov-18 10:49 34.119000 -118.248006 150 14930ft 265kts
20-Nov-18 10:50 34.052676 -118.209793 150 14931ft 265kts
20-Nov-18 10:51 33.986104 -118.171377 150 14931ft 265kts
20-Nov-18 10:52 33.920001 -118.133295 150 14983ft 264kts
20-Nov-18 10:53 33.855461 -118.096179 150 14986ft 265kts
20-Nov-18 10:54 33.789154 -118.058091 149 14989ft 265kts
20-Nov-18 10:55 33.736241 -117.999008 132 14991ft 260kts
20-Nov-18 10:56 33.684946 -117.938416 132 14981ft 260kts
20-Nov-18 10:57 33.633792 -117.878065 132 14981ft 260kts
20-Nov-18 10:58 33.582163 -117.817260 132 14981ft 260kts
20-Nov-18 10:59 33.530738 -117.756789 132 14981ft 260kts
20-Nov-18 11:00 33.479135 -117.696187 132 14983ft 260kts
20-Nov-18 11:01 33.427395 -117.635588 132 14987ft 260kts
20-Nov-18 11:02 33.375662 -117.575110 132 14988ft 260kts
20-Nov-18 11:03 33.323998 -117.514816 132 14985ft 260kts
20-Nov-18 11:04 33.272222 -117.454480 132 14982ft 260kts
20-Nov-18 11:05 33.213186 -117.406237 155 14983ft 266kts
20-Nov-18 11:06 33.142311 -117.376262 156 14044ft 277kts
20-Nov-18 11:07 33.070280 -117.345981 159 12555ft 278kts
20-Nov-18 11:08 33.000089 -117.316537 160 11098ft 282kts
20-Nov-18 11:09 32.926181 -117.285585 160 9444ft 279kts
20-Nov-18 11:10 32.857408 -117.256824 160 7725ft 273kts
20-Nov-18 11:11 32.800261 -117.211870 101 7003ft 252kts
20-Nov-18 11:12 32.787390 -117.130575 101 6999ft 250kts
20-Nov-18 11:13 32.774765 -117.050223 101 6999ft 244kts
20-Nov-18 11:14 32.762332 -116.971189 100 7003ft 243kts
20-Nov-18 11:15 32.747960 -116.893532 101 6999ft 239kts
20-Nov-18 11:16 32.724253 -116.826762 160 6329ft 233kts
20-Nov-18 11:17 32.687481 -116.873040 275 4985ft 203kts
20-Nov-18 11:18 32.672751 -116.934668 267 3980ft 190kts
20-Nov-18 11:19 32.684310 -116.987310 286 3314ft 153kts
20-Nov-18 11:20 32.695364 -117.032612 285 2653ft 119kts
20-Nov-18 11:21 32.705099 -117.072678 286 2014ft 136kts
20-Nov-18 11:22 32.713529 -117.107212 286 1566ft 104kts
20-Nov-18 11:23 32.721523 -117.140094 286 871ft 102kts
20-Nov-18 11:24 32.728887 -117.170530 287 251ft 89kts
20-Nov-18 11:25 32.734037 -117.190692 331 19ft 9kts
20-Nov-18 11:26 32.734311 -117.188023 106 18ft 14kts
20-Nov-18 11:27 32.733271 -117.183719 106 17ft 13kts
20-Nov-18 11:28 32.732167 -117.179152 106 17ft 16kts
20-Nov-18 11:29 32.732395 -117.177436 194 20ft 2kts
20-Nov-18 11:30 32.732390 -117.177437 193 20ft 0kts
20-Nov-18 11:31 32.732390 -117.177437 193 20ft 0kts
20-Nov-18 11:32 32.732390 -117.177437 193 20ft 0kts
20-Nov-18 11:33 32.732390 -117.177437 193 20ft 0kts
20-Nov-18 11:34 32.732390 -117.177437 193 20ft 0kts
20-Nov-18 11:35 32.732390 -117.177437 193 20ft 0kts

Navigation Log

Ident Type
Flight plan parsing failed, navigation log unavailable